createdAt,value
2022-11-30T00:00:29.443Z,100791.75
2022-11-30T00:03:00.870Z,100799.34
2022-11-30T00:05:33.931Z,100794.91
2022-11-30T00:08:05.520Z,100798.44
2022-11-30T00:10:36.250Z,100799.94
2022-11-30T00:13:06.780Z,100800.31
2022-11-30T00:15:38.669Z,100796.66
2022-11-30T00:18:08.841Z,100801.50
2022-11-30T00:20:41.073Z,100807.09
2022-11-30T00:23:11.473Z,100809.44
2022-11-30T00:25:42.282Z,100809.81
2022-11-30T00:28:12.736Z,100801.31
2022-11-30T00:30:43.085Z,100806.47
2022-11-30T00:33:13.482Z,100808.44
2022-11-30T00:35:46.550Z,100806.81
2022-11-30T00:38:17.168Z,100810.81
2022-11-30T00:40:47.633Z,100808.34
2022-11-30T00:43:17.664Z,100817.59
2022-11-30T00:45:48.301Z,100813.16
2022-11-30T00:48:18.909Z,100814.31
2022-11-30T00:50:51.551Z,100811.16
2022-11-30T00:53:23.392Z,100811.16
2022-11-30T00:55:53.754Z,100816.34
2022-11-30T00:58:23.565Z,100815.88
2022-11-30T01:00:54.328Z,100819.00
2022-11-30T01:03:24.395Z,100818.91
2022-11-30T01:05:56.882Z,100814.84
2022-11-30T01:08:27.089Z,100815.91
2022-11-30T01:10:58.262Z,100815.44
2022-11-30T01:13:29.221Z,100809.38
2022-11-30T01:16:00.274Z,100809.38
2022-11-30T01:18:30.377Z,100810.19
2022-11-30T01:21:02.983Z,100817.78
2022-11-30T01:23:33.438Z,100825.03
2022-11-30T01:26:03.573Z,100816.63
2022-11-30T01:28:34.497Z,100817.44
2022-11-30T01:31:07.920Z,100815.44
2022-11-30T01:33:39.141Z,100805.84
2022-11-30T01:36:16.605Z,100810.66
2022-11-30T01:38:49.903Z,100809.03
2022-11-30T01:41:24.678Z,100805.38
2022-11-30T01:43:59.094Z,100817.78
2022-11-30T01:46:36.900Z,100818.16
2022-11-30T01:49:18.576Z,100815.25
2022-11-30T01:52:01.010Z,100822.41
2022-11-30T01:54:38.872Z,100818.28
2022-11-30T01:57:30.713Z,100818.66
2022-11-30T02:00:05.334Z,100821.00
2022-11-30T02:02:46.548Z,100826.16
2022-11-30T02:05:18.797Z,100817.72
2022-11-30T02:07:51.864Z,100816.94
2022-11-30T02:10:30.766Z,100820.91
2022-11-30T02:13:36.410Z,100823.59
2022-11-30T02:16:20.743Z,100827.59
2022-11-30T02:19:10.295Z,100832.41
2022-11-30T02:21:50.700Z,100823.16
2022-11-30T02:24:55.232Z,100817.91
2022-11-30T02:27:47.987Z,100824.69
2022-11-30T02:30:25.256Z,100814.16
2022-11-30T02:33:03.901Z,100818.97
2022-11-30T02:35:40.458Z,100816.16
2022-11-30T02:38:12.093Z,100821.78
2022-11-30T02:40:42.179Z,100831.00
2022-11-30T02:43:12.789Z,100826.22
2022-11-30T02:45:55.714Z,100840.69
2022-11-30T02:48:35.256Z,100837.06
2022-11-30T02:51:13.322Z,100833.47
2022-11-30T02:53:46.161Z,100841.06
2022-11-30T02:56:17.239Z,100842.22
2022-11-30T02:58:48.034Z,100847.03
2022-11-30T03:01:20.642Z,100855.78
2022-11-30T03:03:51.394Z,100858.13
2022-11-30T03:06:21.963Z,100858.13
2022-11-30T03:08:52.498Z,100857.28
2022-11-30T03:11:23.231Z,100870.97
2022-11-30T03:13:53.957Z,100877.41
2022-11-30T03:16:26.409Z,100875.44
2022-11-30T03:18:57.453Z,100869.81
2022-11-30T03:21:28.330Z,100882.69
2022-11-30T03:23:58.226Z,100869.47
2022-11-30T03:26:28.809Z,100880.72
2022-11-30T03:28:58.931Z,100881.88
2022-11-30T03:31:30.756Z,100889.13
2022-11-30T03:34:01.563Z,100889.13
2022-11-30T03:36:31.567Z,100891.44
2022-11-30T03:39:12.318Z,100906.28
2022-11-30T03:41:42.616Z,100901.03
2022-11-30T03:44:12.243Z,100905.47
2022-11-30T03:46:44.901Z,100908.28
2022-11-30T03:49:15.674Z,100913.88
2022-11-30T03:51:46.429Z,100925.09
2022-11-30T03:54:17.119Z,100925.94
2022-11-30T03:56:47.601Z,100927.13
2022-11-30T03:59:19.921Z,100923.13
2022-11-30T04:02:06.783Z,100929.59
2022-11-30T04:04:37.597Z,100928.75
2022-11-30T04:07:08.212Z,100923.13
2022-11-30T04:09:38.908Z,100923.13
2022-11-30T04:12:10.293Z,100923.00
2022-11-30T04:14:40.946Z,100920.56
2022-11-30T04:17:13.652Z,100915.31
2022-11-30T04:19:44.230Z,100919.28
2022-11-30T04:22:14.777Z,100922.41
2022-11-30T04:24:44.684Z,100937.63
2022-11-30T04:27:15.342Z,100941.63
2022-11-30T04:29:46.215Z,100944.88
2022-11-30T04:32:18.832Z,100947.34
2022-11-30T04:34:49.663Z,100954.13
2022-11-30T04:37:19.840Z,100958.56
2022-11-30T04:39:50.537Z,100954.59
2022-11-30T04:42:21.431Z,100956.19
2022-11-30T04:44:51.905Z,100960.31
2022-11-30T04:47:24.136Z,100953.16
2022-11-30T04:49:54.262Z,100964.41
2022-11-30T04:52:24.848Z,100963.25
2022-11-30T04:54:56.654Z,100960.09
2022-11-30T04:57:26.938Z,100968.63
2022-11-30T04:59:57.041Z,100965.50
2022-11-30T05:02:31.880Z,100970.38
2022-11-30T05:05:03.128Z,100960.88
2022-11-30T05:07:33.777Z,100960.66
2022-11-30T05:10:04.498Z,100964.84
2022-11-30T05:12:34.961Z,100965.81
2022-11-30T05:15:06.293Z,100963.09
2022-11-30T05:17:37.939Z,100968.34
2022-11-30T05:20:10.581Z,100966.84
2022-11-30T05:22:41.154Z,100977.25
2022-11-30T05:25:13.011Z,100971.28
2022-11-30T05:27:43.053Z,100972.47
2022-11-30T05:30:14.514Z,100979.25
2022-11-30T05:32:47.172Z,100977.59
2022-11-30T05:35:17.910Z,100977.13
2022-11-30T05:37:47.997Z,100981.59
2022-11-30T05:40:18.868Z,100990.00
2022-11-30T05:42:49.406Z,100992.81
2022-11-30T05:45:20.249Z,101004.06
2022-11-30T05:47:53.226Z,101000.53
2022-11-30T05:50:23.661Z,101010.94
2022-11-30T05:52:56.735Z,101011.41
2022-11-30T05:55:27.011Z,101004.63
2022-11-30T05:57:57.755Z,101005.44
2022-11-30T06:00:28.575Z,101013.06
2022-11-30T06:03:01.893Z,101017.50
2022-11-30T06:05:32.796Z,101025.94
2022-11-30T06:08:03.732Z,101031.53
2022-11-30T06:10:34.641Z,101031.19
2022-11-30T06:13:10.708Z,101028.03
2022-11-30T06:15:41.624Z,101036.47
2022-11-30T06:18:16.458Z,101027.69
2022-11-30T06:20:47.344Z,101036.56
2022-11-30T06:23:17.218Z,101033.03
2022-11-30T06:25:47.307Z,101038.31
2022-11-30T06:28:17.218Z,101045.22
2022-11-30T06:30:47.696Z,101045.69
2022-11-30T06:33:25.553Z,101046.97
2022-11-30T06:35:56.083Z,101052.22
2022-11-30T06:38:26.617Z,101049.06
2022-11-30T06:40:57.406Z,101055.13
2022-11-30T06:43:27.304Z,101046.38
2022-11-30T06:45:58.128Z,101046.84
2022-11-30T06:48:30.778Z,101052.09
2022-11-30T06:51:01.321Z,101050.97
2022-11-30T06:53:31.668Z,101057.03
2022-11-30T06:56:06.859Z,101062.66
2022-11-30T06:58:41.082Z,101056.69
2022-11-30T07:01:15.745Z,101060.28
2022-11-30T07:03:47.880Z,101054.69
2022-11-30T07:06:19.147Z,101069.56
2022-11-30T07:08:50.341Z,101058.31
2022-11-30T07:11:20.828Z,101064.41
2022-11-30T07:13:52.589Z,101057.34
2022-11-30T07:16:22.672Z,101050.63
2022-11-30T07:18:55.308Z,101055.25
2022-11-30T07:21:25.034Z,101052.03
2022-11-30T07:24:12.904Z,101051.53
2022-11-30T07:26:46.294Z,101054.91
2022-11-30T07:29:18.305Z,101053.84
2022-11-30T07:31:56.058Z,101063.53
2022-11-30T07:34:29.754Z,101071.66
2022-11-30T07:37:03.220Z,101067.28
2022-11-30T07:39:37.199Z,101060.75
2022-11-30T07:42:12.959Z,101063.69
2022-11-30T07:44:45.776Z,101057.47
2022-11-30T07:47:20.468Z,101059.44
2022-11-30T07:49:57.177Z,101054.88
2022-11-30T07:52:31.029Z,101057.06
2022-11-30T07:55:04.272Z,101055.50
2022-11-30T07:57:36.944Z,101057.16
2022-11-30T08:00:12.209Z,101050.72
2022-11-30T08:02:43.373Z,101063.63
2022-11-30T08:05:18.549Z,101054.72
2022-11-30T08:07:55.442Z,101055.50
2022-11-30T08:10:30.190Z,101051.88
2022-11-30T08:13:02.951Z,101055.09
2022-11-30T08:15:34.685Z,101046.63
2022-11-30T08:18:08.411Z,101032.44
2022-11-30T08:20:49.685Z,101044.91
2022-11-30T08:23:20.492Z,101041.25
2022-11-30T08:25:52.619Z,101029.19
2022-11-30T08:28:24.043Z,101028.00
2022-11-30T08:30:55.766Z,101035.25
2022-11-30T08:33:30.624Z,101033.34
2022-11-30T08:36:13.902Z,101032.25
2022-11-30T08:38:48.294Z,101031.88
2022-11-30T08:41:23.811Z,101031.97
2022-11-30T08:43:57.055Z,101026.41
2022-11-30T08:49:24.788Z,101021.41
2022-11-30T08:52:17.440Z,101013.13
2022-11-30T08:54:52.972Z,101010.44
2022-11-30T08:57:28.960Z,101008.59
2022-11-30T09:00:01.165Z,101011.22
2022-11-30T09:02:35.384Z,101004.06
2022-11-30T09:05:07.334Z,101014.69
2022-11-30T09:07:42.388Z,101012.41
2022-11-30T09:10:23.490Z,101012.97
2022-11-30T09:12:55.083Z,101011.50
2022-11-30T09:15:26.829Z,101004.47
2022-11-30T09:18:00.859Z,101005.47
2022-11-30T09:20:34.347Z,101012.94
2022-11-30T09:23:07.639Z,101001.94
2022-11-30T09:25:38.767Z,101011.81
2022-11-30T09:28:12.257Z,101006.47
2022-11-30T09:30:45.746Z,100998.97
2022-11-30T09:33:16.452Z,100997.13
2022-11-30T09:35:47.125Z,100995.25
2022-11-30T09:38:18.925Z,100992.53
2022-11-30T09:40:56.551Z,100995.41
2022-11-30T09:43:44.719Z,100990.53
2022-11-30T09:46:16.388Z,100998.66
2022-11-30T09:49:02.744Z,101000.31
2022-11-30T09:51:47.989Z,100998.28
2022-11-30T09:54:35.738Z,100999.47
2022-11-30T09:57:26.558Z,100991.00
2022-11-30T10:00:00.891Z,100991.78
2022-11-30T10:02:36.522Z,100996.59
2022-11-30T10:05:15.590Z,100996.97
2022-11-30T10:08:10.731Z,101003.00
2022-11-30T10:10:49.013Z,100998.47
2022-11-30T10:13:43.160Z,100991.53
2022-11-30T10:16:28.303Z,100994.69
2022-11-30T10:19:15.783Z,100996.66
2022-11-30T10:22:10.957Z,100998.16
2022-11-30T10:25:11.453Z,100997.69
2022-11-30T10:27:54.361Z,101003.63
2022-11-30T10:30:27.137Z,101004.38
2022-11-30T10:33:03.126Z,101002.75
2022-11-30T10:35:43.036Z,101011.22
2022-11-30T10:38:22.460Z,101009.22
2022-11-30T10:41:00.610Z,101002.34
2022-11-30T10:43:40.278Z,100999.50
2022-11-30T10:46:21.435Z,101001.88
2022-11-30T10:48:59.955Z,101001.44
2022-11-30T10:51:31.088Z,100997.38
2022-11-30T10:54:01.938Z,101005.38
2022-11-30T10:56:32.264Z,101005.31
2022-11-30T10:59:14.399Z,101003.22
2022-11-30T11:01:44.998Z,100998.72
2022-11-30T11:04:21.174Z,101000.28
2022-11-30T11:06:56.116Z,101003.84
2022-11-30T11:09:38.009Z,101003.41
2022-11-30T11:12:17.531Z,101003.78
2022-11-30T11:14:50.228Z,101005.38
2022-11-30T11:17:29.540Z,101005.72
2022-11-30T11:19:59.938Z,101010.97
2022-11-30T11:22:34.528Z,101007.31
2022-11-30T11:25:23.525Z,101007.69
2022-11-30T11:27:58.160Z,101002.44
2022-11-30T11:30:35.680Z,101007.25
2022-11-30T11:33:22.338Z,101006.78
2022-11-30T11:35:55.239Z,101001.16
2022-11-30T11:38:30.161Z,101003.97
2022-11-30T11:41:05.503Z,100995.94
2022-11-30T11:43:42.846Z,101004.41
2022-11-30T11:46:16.828Z,101006.06
2022-11-30T11:49:00.188Z,101009.69
2022-11-30T11:51:36.341Z,101001.22
2022-11-30T11:54:30.435Z,101006.84
2022-11-30T11:57:02.375Z,101006.84
2022-11-30T11:59:49.996Z,101010.97
2022-11-30T12:02:36.364Z,101005.31
2022-11-30T12:05:17.294Z,100997.66
2022-11-30T12:08:09.101Z,101005.72
2022-11-30T12:10:52.578Z,101008.56
2022-11-30T12:13:29.671Z,101006.94
2022-11-30T12:16:12.710Z,101010.56
2022-11-30T12:18:57.603Z,101010.97
2022-11-30T12:21:47.592Z,101015.78
2022-11-30T12:24:54.511Z,101019.78
2022-11-30T12:27:42.982Z,101020.63
2022-11-30T12:30:22.289Z,101027.91
2022-11-30T12:33:15.304Z,101021.84
2022-11-30T12:36:08.575Z,101025.47
2022-11-30T12:38:50.808Z,101032.78
2022-11-30T12:41:39.251Z,101026.31
2022-11-30T12:44:35.596Z,101025.47
2022-11-30T12:47:28.000Z,101029.53
2022-11-30T12:50:25.920Z,101033.53
2022-11-30T12:53:08.856Z,101030.72
2022-11-30T12:55:50.816Z,101039.19
2022-11-30T12:58:37.437Z,101033.91
2022-11-30T13:01:36.404Z,101033.47
2022-11-30T13:04:17.253Z,101027.75
2022-11-30T13:06:54.122Z,101033.75
2022-11-30T13:09:35.772Z,101028.94
2022-11-30T13:12:13.807Z,101030.13
2022-11-30T13:14:45.755Z,101036.59
2022-11-30T13:17:21.429Z,101034.56
2022-11-30T13:20:04.675Z,101034.56
2022-11-30T13:22:48.466Z,101037.38
2022-11-30T13:26:06.147Z,101036.22
2022-11-30T13:28:33.998Z,101041.84
2022-11-30T13:31:13.341Z,101043.03
2022-11-30T13:33:51.869Z,101048.25
2022-11-30T13:36:34.181Z,101059.56
2022-11-30T13:39:29.329Z,101047.81
2022-11-30T13:42:57.394Z,101058.66
2022-11-30T13:45:35.137Z,101055.03
2022-11-30T13:48:32.673Z,101055.03
2022-11-30T13:51:03.521Z,101050.13
2022-11-30T13:53:37.845Z,101057.34
2022-11-30T13:56:24.727Z,101053.22
2022-11-30T13:59:47.366Z,101053.16
2022-11-30T14:02:54.795Z,101053.09
2022-11-30T14:05:37.304Z,101054.28
2022-11-30T14:08:37.969Z,101050.66
2022-11-30T14:11:41.370Z,101051.84
2022-11-30T14:14:49.923Z,101057.00
2022-11-30T14:17:26.116Z,101065.47
2022-11-30T14:20:02.746Z,101058.66
2022-11-30T14:22:34.189Z,101060.31
2022-11-30T14:25:05.478Z,101061.09
2022-11-30T14:27:39.300Z,101067.59
2022-11-30T14:30:22.252Z,101069.22
2022-11-30T14:33:07.006Z,101067.59
2022-11-30T14:35:40.591Z,101077.22
2022-11-30T14:38:26.321Z,101075.59
2022-11-30T14:40:58.341Z,101074.78
2022-11-30T14:43:30.267Z,101071.09
2022-11-30T14:46:07.283Z,101081.25
2022-11-30T14:48:40.762Z,101086.41
2022-11-30T14:51:14.349Z,101090.06
2022-11-30T14:53:56.240Z,101090.06
2022-11-30T14:56:39.712Z,101090.41
2022-11-30T14:59:31.529Z,101095.25
2022-11-30T15:02:07.088Z,101097.63
2022-11-30T15:04:39.826Z,101098.00
2022-11-30T15:07:18.362Z,101103.63
2022-11-30T15:09:55.748Z,101099.19
2022-11-30T15:12:28.110Z,101111.66
2022-11-30T15:15:17.120Z,101107.19
2022-11-30T15:17:56.577Z,101107.56
2022-11-30T15:20:33.038Z,101114.41
2022-11-30T15:23:03.919Z,101114.75
2022-11-30T15:25:42.420Z,101114.75
2022-11-30T15:28:17.703Z,101107.84
2022-11-30T15:30:51.406Z,101113.50
2022-11-30T15:33:32.187Z,101116.69
2022-11-30T15:36:19.201Z,101120.69
2022-11-30T15:38:55.116Z,101116.63
2022-11-30T15:41:27.959Z,101117.78
2022-11-30T15:44:00.098Z,101129.06
2022-11-30T15:46:44.271Z,101126.59
2022-11-30T15:49:28.275Z,101128.16
2022-11-30T15:52:09.598Z,101129.34
2022-11-30T15:54:53.150Z,101138.19
2022-11-30T15:57:25.292Z,101142.56
2022-11-30T16:00:21.683Z,101144.56
2022-11-30T16:02:52.531Z,101147.75
2022-11-30T16:05:28.764Z,101154.56
2022-11-30T16:08:03.853Z,101156.94
2022-11-30T16:10:39.612Z,101162.56
2022-11-30T16:13:10.761Z,101162.13
2022-11-30T16:15:41.124Z,101162.13
2022-11-30T16:18:19.419Z,101166.50
2022-11-30T16:20:55.163Z,101175.78
2022-11-30T16:23:26.357Z,101176.50
2022-11-30T16:25:57.329Z,101179.25
2022-11-30T16:28:27.923Z,101174.78
2022-11-30T16:31:02.239Z,101185.25
2022-11-30T16:33:32.224Z,101192.44
2022-11-30T16:36:09.988Z,101190.78
2022-11-30T16:38:40.027Z,101187.09
2022-11-30T16:41:18.898Z,101189.44
2022-11-30T16:43:51.482Z,101187.81
2022-11-30T16:46:25.455Z,101196.63
2022-11-30T16:48:56.318Z,101195.00
2022-11-30T16:51:31.932Z,101194.16
2022-11-30T16:54:02.436Z,101193.69
2022-11-30T16:56:32.478Z,101200.53
2022-11-30T16:59:03.099Z,101196.88
2022-11-30T17:01:37.329Z,101200.06
2022-11-30T17:04:19.957Z,101204.84
2022-11-30T17:06:58.766Z,101204.44
2022-11-30T17:09:34.849Z,101211.25
2022-11-30T17:12:05.435Z,101211.59
2022-11-30T17:14:35.833Z,101217.59
2022-11-30T17:17:06.293Z,101213.97
2022-11-30T17:19:38.192Z,101217.13
2022-11-30T17:22:10.454Z,101223.94
2022-11-30T17:24:40.840Z,101222.69
2022-11-30T17:27:12.358Z,101229.13
2022-11-30T17:29:43.651Z,101221.03
2022-11-30T17:32:13.961Z,101220.22
2022-11-30T17:34:44.865Z,101231.03
2022-11-30T17:37:16.985Z,101224.56
2022-11-30T17:39:47.460Z,101237.84
2022-11-30T17:42:18.541Z,101237.41
2022-11-30T17:44:49.784Z,101233.78
2022-11-30T17:47:22.571Z,101235.28
2022-11-30T17:49:53.511Z,101238.47
2022-11-30T17:52:26.009Z,101237.69
2022-11-30T17:54:56.539Z,101237.22
2022-11-30T17:57:26.113Z,101239.19
2022-11-30T17:59:56.528Z,101246.84
2022-11-30T18:02:26.636Z,101243.22
2022-11-30T18:04:57.452Z,101251.22
2022-11-30T18:07:29.617Z,101241.13
2022-11-30T18:10:02.132Z,101246.28
2022-11-30T18:12:31.797Z,101240.19
2022-11-30T18:15:02.342Z,101243.38
2022-11-30T18:17:33.635Z,101236.09
2022-11-30T18:20:04.384Z,101245.72
2022-11-30T18:22:36.493Z,101242.91
2022-11-30T18:25:07.818Z,101246.91
2022-11-30T18:27:38.604Z,101244.09
2022-11-30T18:30:11.084Z,101248.06
2022-11-30T18:32:41.928Z,101250.09
2022-11-30T18:35:13.411Z,101243.63
2022-11-30T18:37:46.039Z,101243.63
2022-11-30T18:40:17.165Z,101235.53
2022-11-30T18:42:49.892Z,101234.75
2022-11-30T18:45:20.652Z,101233.09
2022-11-30T18:47:50.591Z,101239.06
2022-11-30T18:50:21.549Z,101246.34
2022-11-30T18:52:55.275Z,101249.53
2022-11-30T18:55:26.868Z,101245.88
2022-11-30T18:57:58.308Z,101244.97
2022-11-30T19:00:29.466Z,101246.53
2022-11-30T19:03:00.421Z,101248.88
2022-11-30T19:05:38.656Z,101247.59
2022-11-30T19:08:16.208Z,101245.13
2022-11-30T19:10:46.863Z,101251.09
2022-11-30T19:13:16.924Z,101247.81
2022-11-30T19:15:47.332Z,101246.53
2022-11-30T19:18:22.894Z,101243.63
2022-11-30T19:20:53.787Z,101251.13
2022-11-30T19:23:26.480Z,101253.47
2022-11-30T19:26:03.280Z,101256.66
2022-11-30T19:28:35.722Z,101253.03
2022-11-30T19:31:12.558Z,101261.47
2022-11-30T19:33:46.627Z,101259.38
2022-11-30T19:36:19.863Z,101258.19
2022-11-30T19:38:52.447Z,101267.81
2022-11-30T19:41:23.803Z,101265.34
2022-11-30T19:44:03.093Z,101269.38
2022-11-30T19:46:34.996Z,101272.50
2022-11-30T19:49:07.707Z,101268.88
2022-11-30T19:51:38.785Z,101276.50
2022-11-30T19:54:10.671Z,101276.88
2022-11-30T19:56:43.040Z,101273.59
2022-11-30T19:59:13.640Z,101275.59
2022-11-30T20:01:44.504Z,101270.31
2022-11-30T20:04:14.696Z,101262.22
2022-11-30T20:06:45.706Z,101263.41
2022-11-30T20:09:18.366Z,101264.56
2022-11-30T20:11:48.966Z,101259.66
2022-11-30T20:14:22.832Z,101258.38
2022-11-30T20:16:53.547Z,101255.13
2022-11-30T20:19:24.952Z,101257.44
2022-11-30T20:21:55.642Z,101253.34
2022-11-30T20:24:28.018Z,101255.34
2022-11-30T20:26:58.876Z,101250.09
2022-11-30T20:29:29.356Z,101245.63
2022-11-30T20:32:00.434Z,101248.44
2022-11-30T20:34:34.643Z,101247.59
2022-11-30T20:37:06.597Z,101254.41
2022-11-30T20:39:44.054Z,101250.78
2022-11-30T20:42:16.205Z,101242.72
2022-11-30T20:44:46.453Z,101249.13
2022-11-30T20:47:16.880Z,101252.31
2022-11-30T20:49:48.477Z,101255.94
2022-11-30T20:52:18.674Z,101251.47
2022-11-30T20:54:51.313Z,101259.13
2022-11-30T20:57:21.301Z,101259.44
2022-11-30T20:59:52.073Z,101262.25
2022-11-30T21:02:22.325Z,101263.09
2022-11-30T21:04:53.097Z,101252.22
2022-11-30T21:07:23.200Z,101260.66
2022-11-30T21:09:55.997Z,101255.72
2022-11-30T21:12:26.049Z,101260.50
2022-11-30T21:14:56.413Z,101256.09
2022-11-30T21:17:27.081Z,101257.25
2022-11-30T21:19:57.810Z,101264.06
2022-11-30T21:22:30.331Z,101268.41
2022-11-30T21:25:02.729Z,101268.22
2022-11-30T21:27:32.748Z,101268.97
2022-11-30T21:30:02.761Z,101270.84
2022-11-30T21:32:32.744Z,101272.84
2022-11-30T21:35:02.999Z,101267.53
2022-11-30T21:37:33.288Z,101267.53
2022-11-30T21:40:05.538Z,101268.72
2022-11-30T21:42:35.456Z,101266.25
2022-11-30T21:45:19.498Z,101266.25
2022-11-30T21:47:49.686Z,101261.00
2022-11-30T21:50:23.094Z,101269.44
2022-11-30T21:52:57.091Z,101262.19
2022-11-30T21:55:29.237Z,101264.16
2022-11-30T21:57:59.634Z,101266.16
2022-11-30T22:00:30.080Z,101265.31
2022-11-30T22:03:00.231Z,101269.34
2022-11-30T22:05:30.367Z,101271.31
2022-11-30T22:08:00.791Z,101266.84
2022-11-30T22:10:32.805Z,101274.47
2022-11-30T22:13:02.313Z,101275.66
2022-11-30T22:15:32.334Z,101267.53
2022-11-30T22:18:02.357Z,101276.34
2022-11-30T22:20:32.826Z,101269.91
2022-11-30T22:23:03.845Z,101275.06
2022-11-30T22:25:36.412Z,101275.75
2022-11-30T22:28:07.218Z,101278.09
2022-11-30T22:30:44.673Z,101274.84
2022-11-30T22:33:14.639Z,101281.97
2022-11-30T22:35:44.709Z,101281.03
2022-11-30T22:38:16.791Z,101280.09
2022-11-30T22:40:49.399Z,101280.31
2022-11-30T22:43:19.229Z,101273.41
2022-11-30T22:45:49.787Z,101278.22
2022-11-30T22:48:20.435Z,101279.38
2022-11-30T22:50:50.688Z,101280.53
2022-11-30T22:53:20.792Z,101273.28
2022-11-30T22:55:52.802Z,101280.91
2022-11-30T22:58:23.353Z,101279.25
2022-11-30T23:01:06.832Z,101271.19
2022-11-30T23:03:37.140Z,101274.69
2022-11-30T23:06:08.323Z,101271.03
2022-11-30T23:08:39.989Z,101277.03
2022-11-30T23:11:14.571Z,101266.16
2022-11-30T23:13:46.449Z,101266.31
2022-11-30T23:16:17.620Z,101270.19
2022-11-30T23:18:50.944Z,101268.09
2022-11-30T23:21:25.314Z,101273.56
2022-11-30T23:23:56.851Z,101277.09
2022-11-30T23:26:31.899Z,101283.88
2022-11-30T23:29:05.731Z,101269.69
2022-11-30T23:31:40.481Z,101272.50
2022-11-30T23:34:20.249Z,101260.44
2022-11-30T23:36:51.641Z,101268.06
2022-11-30T23:39:23.770Z,101263.25
2022-11-30T23:41:56.112Z,101270.50
2022-11-30T23:44:26.388Z,101263.25
2022-11-30T23:46:56.945Z,101266.06
2022-11-30T23:49:28.027Z,101257.63
2022-11-30T23:51:58.938Z,101264.88
2022-11-30T23:54:28.982Z,101267.69
2022-11-30T23:57:01.748Z,101262.91
2022-11-30T23:59:32.226Z,101265.72
